sensor_id;sensor_type;location;lat;lon;timestamp;temperature;humidity
66576;SHT31;53428;47.686;16.584;2022-11-03T00:00:59;10.02;90.97
66576;SHT31;53428;47.686;16.584;2022-11-03T00:05:58;9.87;91.15
66576;SHT31;53428;47.686;16.584;2022-11-03T00:11:13;9.65;92.03
66576;SHT31;53428;47.686;16.584;2022-11-03T00:16:12;9.39;92.82
66576;SHT31;53428;47.686;16.584;2022-11-03T00:21:12;9.45;92.81
66576;SHT31;53428;47.686;16.584;2022-11-03T00:26:14;9.34;93.42
66576;SHT31;53428;47.686;16.584;2022-11-03T00:31:19;9.31;93.35
66576;SHT31;53428;47.686;16.584;2022-11-03T00:36:30;9.16;93.72
66576;SHT31;53428;47.686;16.584;2022-11-03T00:41:29;8.89;94.50
66576;SHT31;53428;47.686;16.584;2022-11-03T00:46:29;8.75;95.11
66576;SHT31;53428;47.686;16.584;2022-11-03T00:51:28;8.80;94.92
66576;SHT31;53428;47.686;16.584;2022-11-03T00:56:31;8.86;94.86
66576;SHT31;53428;47.686;16.584;2022-11-03T01:01:41;8.91;94.65
66576;SHT31;53428;47.686;16.584;2022-11-03T01:06:43;8.84;94.88
66576;SHT31;53428;47.686;16.584;2022-11-03T01:17:08;8.72;94.82
66576;SHT31;53428;47.686;16.584;2022-11-03T01:22:09;8.58;95.40
66576;SHT31;53428;47.686;16.584;2022-11-03T01:27:12;8.59;95.77
66576;SHT31;53428;47.686;16.584;2022-11-03T01:32:12;8.60;95.34
66576;SHT31;53428;47.686;16.584;2022-11-03T01:37:12;8.51;95.53
66576;SHT31;53428;47.686;16.584;2022-11-03T01:42:12;8.51;95.79
66576;SHT31;53428;47.686;16.584;2022-11-03T01:47:28;8.76;95.33
66576;SHT31;53428;47.686;16.584;2022-11-03T01:52:35;8.77;95.08
66576;SHT31;53428;47.686;16.584;2022-11-03T01:57:40;8.89;94.85
66576;SHT31;53428;47.686;16.584;2022-11-03T02:02:41;8.90;94.76
66576;SHT31;53428;47.686;16.584;2022-11-03T02:07:57;9.07;93.73
66576;SHT31;53428;47.686;16.584;2022-11-03T02:12:58;9.06;93.36
66576;SHT31;53428;47.686;16.584;2022-11-03T02:17:58;9.23;92.92
66576;SHT31;53428;47.686;16.584;2022-11-03T02:23:19;9.21;92.92
66576;SHT31;53428;47.686;16.584;2022-11-03T02:28:27;9.23;92.91
66576;SHT31;53428;47.686;16.584;2022-11-03T02:33:47;9.34;92.91
66576;SHT31;53428;47.686;16.584;2022-11-03T02:39:00;9.45;92.52
66576;SHT31;53428;47.686;16.584;2022-11-03T02:44:03;9.49;92.90
66576;SHT31;53428;47.686;16.584;2022-11-03T02:49:03;9.62;92.36
66576;SHT31;53428;47.686;16.584;2022-11-03T02:54:13;9.87;91.69
66576;SHT31;53428;47.686;16.584;2022-11-03T02:59:18;10.07;91.25
66576;SHT31;53428;47.686;16.584;2022-11-03T03:04:28;10.23;90.95
66576;SHT31;53428;47.686;16.584;2022-11-03T03:09:38;10.30;90.82
66576;SHT31;53428;47.686;16.584;2022-11-03T03:14:41;10.27;91.04
66576;SHT31;53428;47.686;16.584;2022-11-03T03:30:06;10.24;91.06
66576;SHT31;53428;47.686;16.584;2022-11-03T03:35:08;10.30;91.12
66576;SHT31;53428;47.686;16.584;2022-11-03T03:40:10;10.24;91.16
66576;SHT31;53428;47.686;16.584;2022-11-03T03:45:14;10.04;92.15
66576;SHT31;53428;47.686;16.584;2022-11-03T03:50:14;9.90;92.73
66576;SHT31;53428;47.686;16.584;2022-11-03T03:55:19;9.85;93.40
66576;SHT31;53428;47.686;16.584;2022-11-03T04:00:20;9.96;93.35
66576;SHT31;53428;47.686;16.584;2022-11-03T04:05:19;9.99;92.87
66576;SHT31;53428;47.686;16.584;2022-11-03T04:10:21;10.03;93.04
66576;SHT31;53428;47.686;16.584;2022-11-03T04:15:20;10.04;93.47
66576;SHT31;53428;47.686;16.584;2022-11-03T04:20:38;10.04;93.45
66576;SHT31;53428;47.686;16.584;2022-11-03T04:25:56;10.04;93.10
66576;SHT31;53428;47.686;16.584;2022-11-03T04:30:57;10.14;92.79
66576;SHT31;53428;47.686;16.584;2022-11-03T04:35:58;10.18;92.75
66576;SHT31;53428;47.686;16.584;2022-11-03T04:40:58;10.18;92.84
66576;SHT31;53428;47.686;16.584;2022-11-03T04:45:57;10.31;93.05
66576;SHT31;53428;47.686;16.584;2022-11-03T04:50:59;10.43;92.34
66576;SHT31;53428;47.686;16.584;2022-11-03T04:55:59;10.25;93.40
66576;SHT31;53428;47.686;16.584;2022-11-03T05:01:00;10.29;93.43
66576;SHT31;53428;47.686;16.584;2022-11-03T05:06:13;10.33;93.56
66576;SHT31;53428;47.686;16.584;2022-11-03T05:16:18;10.37;93.53
66576;SHT31;53428;47.686;16.584;2022-11-03T05:21:20;10.34;94.03
66576;SHT31;53428;47.686;16.584;2022-11-03T05:26:23;10.50;94.44
66576;SHT31;53428;47.686;16.584;2022-11-03T05:31:25;10.58;92.75
66576;SHT31;53428;47.686;16.584;2022-11-03T05:36:28;10.37;93.73
66576;SHT31;53428;47.686;16.584;2022-11-03T05:41:29;10.34;93.93
66576;SHT31;53428;47.686;16.584;2022-11-03T05:46:30;10.25;93.68
66576;SHT31;53428;47.686;16.584;2022-11-03T05:51:33;10.33;93.06
66576;SHT31;53428;47.686;16.584;2022-11-03T05:56:35;10.41;92.70
66576;SHT31;53428;47.686;16.584;2022-11-03T06:01:36;10.51;92.51
66576;SHT31;53428;47.686;16.584;2022-11-03T06:06:37;10.61;91.90
66576;SHT31;53428;47.686;16.584;2022-11-03T06:11:36;10.73;91.34
66576;SHT31;53428;47.686;16.584;2022-11-03T06:16:42;10.85;90.48
66576;SHT31;53428;47.686;16.584;2022-11-03T06:21:44;10.96;90.31
66576;SHT31;53428;47.686;16.584;2022-11-03T06:26:45;11.15;89.45
66576;SHT31;53428;47.686;16.584;2022-11-03T06:31:48;11.27;89.03
66576;SHT31;53428;47.686;16.584;2022-11-03T06:36:48;11.34;88.42
66576;SHT31;53428;47.686;16.584;2022-11-03T06:41:47;11.50;86.83
66576;SHT31;53428;47.686;16.584;2022-11-03T06:46:46;11.64;86.82
66576;SHT31;53428;47.686;16.584;2022-11-03T06:51:46;11.63;86.67
66576;SHT31;53428;47.686;16.584;2022-11-03T06:56:45;11.61;86.62
66576;SHT31;53428;47.686;16.584;2022-11-03T07:01:47;11.48;86.73
66576;SHT31;53428;47.686;16.584;2022-11-03T07:06:48;11.46;86.08
66576;SHT31;53428;47.686;16.584;2022-11-03T07:11:51;11.53;85.39
66576;SHT31;53428;47.686;16.584;2022-11-03T07:21:58;11.99;83.73
66576;SHT31;53428;47.686;16.584;2022-11-03T07:27:06;12.19;83.16
66576;SHT31;53428;47.686;16.584;2022-11-03T07:32:17;12.25;83.40
66576;SHT31;53428;47.686;16.584;2022-11-03T07:37:20;12.01;84.15
66576;SHT31;53428;47.686;16.584;2022-11-03T07:42:21;11.79;84.81
66576;SHT31;53428;47.686;16.584;2022-11-03T07:47:23;11.64;85.49
66576;SHT31;53428;47.686;16.584;2022-11-03T07:52:25;11.56;85.70
66576;SHT31;53428;47.686;16.584;2022-11-03T07:57:27;11.57;85.88
66576;SHT31;53428;47.686;16.584;2022-11-03T08:07:29;11.66;87.04
66576;SHT31;53428;47.686;16.584;2022-11-03T08:12:28;11.82;86.26
66576;SHT31;53428;47.686;16.584;2022-11-03T08:17:27;12.05;85.41
66576;SHT31;53428;47.686;16.584;2022-11-03T08:22:27;12.12;85.07
66576;SHT31;53428;47.686;16.584;2022-11-03T08:27:26;12.09;85.17
66576;SHT31;53428;47.686;16.584;2022-11-03T08:32:25;12.25;84.39
66576;SHT31;53428;47.686;16.584;2022-11-03T08:37:24;12.37;83.57
66576;SHT31;53428;47.686;16.584;2022-11-03T08:42:24;12.44;83.02
66576;SHT31;53428;47.686;16.584;2022-11-03T08:47:23;12.39;83.63
66576;SHT31;53428;47.686;16.584;2022-11-03T08:52:27;12.42;84.30
66576;SHT31;53428;47.686;16.584;2022-11-03T08:57:27;12.54;84.68
66576;SHT31;53428;47.686;16.584;2022-11-03T09:02:27;12.57;85.28
66576;SHT31;53428;47.686;16.584;2022-11-03T09:07:26;12.56;85.49
66576;SHT31;53428;47.686;16.584;2022-11-03T09:12:25;12.54;85.37
66576;SHT31;53428;47.686;16.584;2022-11-03T09:17:24;12.70;85.07
66576;SHT31;53428;47.686;16.584;2022-11-03T09:22:23;13.10;84.22
66576;SHT31;53428;47.686;16.584;2022-11-03T09:27:23;13.67;81.82
66576;SHT31;53428;47.686;16.584;2022-11-03T09:32:22;14.22;78.96
66576;SHT31;53428;47.686;16.584;2022-11-03T09:37:22;14.71;75.27
66576;SHT31;53428;47.686;16.584;2022-11-03T09:42:22;15.08;73.08
66576;SHT31;53428;47.686;16.584;2022-11-03T09:47:24;15.28;72.53
66576;SHT31;53428;47.686;16.584;2022-11-03T09:52:25;15.35;71.99
66576;SHT31;53428;47.686;16.584;2022-11-03T09:57:27;15.66;71.74
66576;SHT31;53428;47.686;16.584;2022-11-03T10:02:28;15.81;71.21
66576;SHT31;53428;47.686;16.584;2022-11-03T10:07:29;16.13;70.64
66576;SHT31;53428;47.686;16.584;2022-11-03T10:12:31;16.16;69.45
66576;SHT31;53428;47.686;16.584;2022-11-03T10:17:33;16.21;69.04
66576;SHT31;53428;47.686;16.584;2022-11-03T10:22:32;16.14;68.20
66576;SHT31;53428;47.686;16.584;2022-11-03T10:27:32;16.34;67.10
66576;SHT31;53428;47.686;16.584;2022-11-03T10:32:31;16.33;67.01
66576;SHT31;53428;47.686;16.584;2022-11-03T10:37:33;16.30;67.21
66576;SHT31;53428;47.686;16.584;2022-11-03T10:42:35;16.41;67.96
66576;SHT31;53428;47.686;16.584;2022-11-03T10:47:34;16.93;66.24
66576;SHT31;53428;47.686;16.584;2022-11-03T10:52:34;17.11;65.93
66576;SHT31;53428;47.686;16.584;2022-11-03T10:57:33;16.79;65.76
66576;SHT31;53428;47.686;16.584;2022-11-03T11:02:33;17.12;65.25
66576;SHT31;53428;47.686;16.584;2022-11-03T11:07:39;17.29;64.55
66576;SHT31;53428;47.686;16.584;2022-11-03T11:28:26;20.01;57.12
66576;SHT31;53428;47.686;16.584;2022-11-03T11:33:30;19.87;57.63
66576;SHT31;53428;47.686;16.584;2022-11-03T11:43:50;20.77;55.78
66576;SHT31;53428;47.686;16.584;2022-11-03T11:49:14;21.61;54.04
66576;SHT31;53428;47.686;16.584;2022-11-03T11:54:17;20.73;55.74
66576;SHT31;53428;47.686;16.584;2022-11-03T11:59:21;21.61;54.74
66576;SHT31;53428;47.686;16.584;2022-11-03T12:04:26;20.69;56.31
66576;SHT31;53428;47.686;16.584;2022-11-03T12:09:29;19.01;60.08
66576;SHT31;53428;47.686;16.584;2022-11-03T12:19:38;20.37;58.29
66576;SHT31;53428;47.686;16.584;2022-11-03T12:24:46;19.72;59.24
66576;SHT31;53428;47.686;16.584;2022-11-03T12:29:46;20.18;59.42
66576;SHT31;53428;47.686;16.584;2022-11-03T12:34:46;21.17;57.45
66576;SHT31;53428;47.686;16.584;2022-11-03T12:39:45;21.66;56.00
66576;SHT31;53428;47.686;16.584;2022-11-03T12:44:45;20.64;57.55
66576;SHT31;53428;47.686;16.584;2022-11-03T12:49:44;21.07;57.50
66576;SHT31;53428;47.686;16.584;2022-11-03T12:54:44;21.13;57.12
66576;SHT31;53428;47.686;16.584;2022-11-03T12:59:43;21.82;55.53
66576;SHT31;53428;47.686;16.584;2022-11-03T13:04:42;20.48;57.75
66576;SHT31;53428;47.686;16.584;2022-11-03T13:09:42;20.83;57.81
66576;SHT31;53428;47.686;16.584;2022-11-03T13:14:41;21.03;57.53
66576;SHT31;53428;47.686;16.584;2022-11-03T13:19:40;20.27;59.32
66576;SHT31;53428;47.686;16.584;2022-11-03T13:24:40;20.22;59.42
66576;SHT31;53428;47.686;16.584;2022-11-03T13:29:39;20.21;59.94
66576;SHT31;53428;47.686;16.584;2022-11-03T13:34:38;19.79;61.43
66576;SHT31;53428;47.686;16.584;2022-11-03T13:39:38;20.06;61.23
66576;SHT31;53428;47.686;16.584;2022-11-03T13:44:37;20.47;59.83
66576;SHT31;53428;47.686;16.584;2022-11-03T13:49:37;20.10;61.16
66576;SHT31;53428;47.686;16.584;2022-11-03T13:54:36;18.47;64.62
66576;SHT31;53428;47.686;16.584;2022-11-03T13:59:36;17.71;67.39
66576;SHT31;53428;47.686;16.584;2022-11-03T14:04:36;17.34;68.78
66576;SHT31;53428;47.686;16.584;2022-11-03T14:09:41;17.11;69.89
66576;SHT31;53428;47.686;16.584;2022-11-03T14:14:40;16.67;71.05
66576;SHT31;53428;47.686;16.584;2022-11-03T14:19:40;16.48;71.75
66576;SHT31;53428;47.686;16.584;2022-11-03T14:24:39;16.34;72.60
66576;SHT31;53428;47.686;16.584;2022-11-03T14:29:39;16.26;72.94
66576;SHT31;53428;47.686;16.584;2022-11-03T14:34:38;16.12;73.56
66576;SHT31;53428;47.686;16.584;2022-11-03T14:39:38;16.03;73.90
66576;SHT31;53428;47.686;16.584;2022-11-03T14:44:38;15.92;74.15
66576;SHT31;53428;47.686;16.584;2022-11-03T14:49:37;15.88;73.95
66576;SHT31;53428;47.686;16.584;2022-11-03T14:54:36;15.62;74.84
66576;SHT31;53428;47.686;16.584;2022-11-03T14:59:36;15.42;75.44
66576;SHT31;53428;47.686;16.584;2022-11-03T15:04:35;15.19;76.16
66576;SHT31;53428;47.686;16.584;2022-11-03T15:09:35;15.17;76.01
66576;SHT31;53428;47.686;16.584;2022-11-03T15:14:34;15.10;76.37
66576;SHT31;53428;47.686;16.584;2022-11-03T15:19:34;15.16;76.17
66576;SHT31;53428;47.686;16.584;2022-11-03T15:24:33;15.13;76.12
66576;SHT31;53428;47.686;16.584;2022-11-03T15:29:32;15.08;76.31
66576;SHT31;53428;47.686;16.584;2022-11-03T15:34:32;15.08;76.43
66576;SHT31;53428;47.686;16.584;2022-11-03T15:39:31;14.90;77.38
66576;SHT31;53428;47.686;16.584;2022-11-03T15:44:31;14.77;78.12
66576;SHT31;53428;47.686;16.584;2022-11-03T15:49:30;14.52;79.39
66576;SHT31;53428;47.686;16.584;2022-11-03T15:54:30;14.62;79.69
66576;SHT31;53428;47.686;16.584;2022-11-03T15:59:29;14.72;79.64
66576;SHT31;53428;47.686;16.584;2022-11-03T16:04:29;14.76;79.83
66576;SHT31;53428;47.686;16.584;2022-11-03T16:09:28;14.79;79.81
66576;SHT31;53428;47.686;16.584;2022-11-03T16:14:28;14.82;79.90
66576;SHT31;53428;47.686;16.584;2022-11-03T16:19:27;14.79;80.17
66576;SHT31;53428;47.686;16.584;2022-11-03T16:24:27;14.75;80.40
66576;SHT31;53428;47.686;16.584;2022-11-03T16:29:26;14.66;80.65
66576;SHT31;53428;47.686;16.584;2022-11-03T16:34:26;14.65;80.77
66576;SHT31;53428;47.686;16.584;2022-11-03T16:39:25;14.63;80.89
66576;SHT31;53428;47.686;16.584;2022-11-03T16:44:25;14.54;81.31
66576;SHT31;53428;47.686;16.584;2022-11-03T16:49:25;14.61;81.02
66576;SHT31;53428;47.686;16.584;2022-11-03T16:54:25;14.56;81.16
66576;SHT31;53428;47.686;16.584;2022-11-03T16:59:24;14.58;80.98
66576;SHT31;53428;47.686;16.584;2022-11-03T17:04:24;14.61;80.78
66576;SHT31;53428;47.686;16.584;2022-11-03T17:09:23;14.69;80.38
66576;SHT31;53428;47.686;16.584;2022-11-03T17:14:23;14.72;79.75
66576;SHT31;53428;47.686;16.584;2022-11-03T17:19:22;14.77;79.28
66576;SHT31;53428;47.686;16.584;2022-11-03T17:24:21;14.73;79.18
66576;SHT31;53428;47.686;16.584;2022-11-03T17:29:23;14.76;78.81
66576;SHT31;53428;47.686;16.584;2022-11-03T17:34:26;14.62;79.23
66576;SHT31;53428;47.686;16.584;2022-11-03T17:39:31;14.58;79.55
66576;SHT31;53428;47.686;16.584;2022-11-03T17:44:32;14.55;79.70
66576;SHT31;53428;47.686;16.584;2022-11-03T17:49:31;14.45;80.05
66576;SHT31;53428;47.686;16.584;2022-11-03T17:54:31;14.46;79.62
66576;SHT31;53428;47.686;16.584;2022-11-03T17:59:31;14.46;79.85
66576;SHT31;53428;47.686;16.584;2022-11-03T18:04:32;14.38;80.48
66576;SHT31;53428;47.686;16.584;2022-11-03T18:09:31;14.34;80.64
66576;SHT31;53428;47.686;16.584;2022-11-03T18:14:30;14.28;81.12
66576;SHT31;53428;47.686;16.584;2022-11-03T18:19:30;14.21;81.58
66576;SHT31;53428;47.686;16.584;2022-11-03T18:24:30;14.17;82.08
66576;SHT31;53428;47.686;16.584;2022-11-03T18:29:29;14.10;82.47
66576;SHT31;53428;47.686;16.584;2022-11-03T18:34:30;14.04;82.88
66576;SHT31;53428;47.686;16.584;2022-11-03T18:39:29;13.93;83.63
66576;SHT31;53428;47.686;16.584;2022-11-03T18:44:29;13.84;84.18
66576;SHT31;53428;47.686;16.584;2022-11-03T18:49:28;13.79;84.72
66576;SHT31;53428;47.686;16.584;2022-11-03T18:54:33;13.63;85.44
66576;SHT31;53428;47.686;16.584;2022-11-03T18:59:34;13.55;85.98
66576;SHT31;53428;47.686;16.584;2022-11-03T19:04:35;13.48;86.23
66576;SHT31;53428;47.686;16.584;2022-11-03T19:09:34;13.53;86.23
66576;SHT31;53428;47.686;16.584;2022-11-03T19:14:35;13.39;86.49
66576;SHT31;53428;47.686;16.584;2022-11-03T19:19:36;13.52;86.15
66576;SHT31;53428;47.686;16.584;2022-11-03T19:24:35;13.42;86.37
66576;SHT31;53428;47.686;16.584;2022-11-03T19:29:37;13.39;86.39
66576;SHT31;53428;47.686;16.584;2022-11-03T19:34:37;13.49;86.05
66576;SHT31;53428;47.686;16.584;2022-11-03T19:39:40;13.26;86.98
66576;SHT31;53428;47.686;16.584;2022-11-03T19:44:40;13.25;86.86
66576;SHT31;53428;47.686;16.584;2022-11-03T19:49:39;13.18;87.11
66576;SHT31;53428;47.686;16.584;2022-11-03T19:54:40;13.07;87.49
66576;SHT31;53428;47.686;16.584;2022-11-03T19:59:40;12.88;88.19
66576;SHT31;53428;47.686;16.584;2022-11-03T20:04:40;12.80;88.70
66576;SHT31;53428;47.686;16.584;2022-11-03T20:09:51;12.85;88.47
66576;SHT31;53428;47.686;16.584;2022-11-03T20:14:50;12.85;88.38
66576;SHT31;53428;47.686;16.584;2022-11-03T20:19:50;12.84;88.42
66576;SHT31;53428;47.686;16.584;2022-11-03T20:24:54;12.71;89.12
66576;SHT31;53428;47.686;16.584;2022-11-03T20:29:56;12.61;89.79
66576;SHT31;53428;47.686;16.584;2022-11-03T20:34:55;12.54;89.83
66576;SHT31;53428;47.686;16.584;2022-11-03T20:39:55;12.32;90.46
66576;SHT31;53428;47.686;16.584;2022-11-03T20:44:54;12.12;91.42
66576;SHT31;53428;47.686;16.584;2022-11-03T20:49:53;12.04;91.86
66576;SHT31;53428;47.686;16.584;2022-11-03T20:54:53;11.92;92.00
66576;SHT31;53428;47.686;16.584;2022-11-03T20:59:52;11.77;92.55
66576;SHT31;53428;47.686;16.584;2022-11-03T21:04:51;11.66;92.83
66576;SHT31;53428;47.686;16.584;2022-11-03T21:09:50;11.68;92.91
66576;SHT31;53428;47.686;16.584;2022-11-03T21:14:50;11.66;92.45
66576;SHT31;53428;47.686;16.584;2022-11-03T21:20:08;11.54;93.03
66576;SHT31;53428;47.686;16.584;2022-11-03T21:25:14;11.44;93.40
66576;SHT31;53428;47.686;16.584;2022-11-03T21:30:15;11.40;93.64
66576;SHT31;53428;47.686;16.584;2022-11-03T21:35:17;11.31;93.97
66576;SHT31;53428;47.686;16.584;2022-11-03T21:40:17;11.23;94.36
66576;SHT31;53428;47.686;16.584;2022-11-03T21:45:17;11.18;94.53
66576;SHT31;53428;47.686;16.584;2022-11-03T21:50:18;11.19;94.16
66576;SHT31;53428;47.686;16.584;2022-11-03T21:55:17;11.20;94.25
66576;SHT31;53428;47.686;16.584;2022-11-03T22:00:17;11.18;94.11
66576;SHT31;53428;47.686;16.584;2022-11-03T22:05:16;11.26;94.16
66576;SHT31;53428;47.686;16.584;2022-11-03T22:10:15;11.23;94.24
66576;SHT31;53428;47.686;16.584;2022-11-03T22:15:16;11.20;93.91
66576;SHT31;53428;47.686;16.584;2022-11-03T22:20:36;11.13;94.08
66576;SHT31;53428;47.686;16.584;2022-11-03T22:25:54;11.00;94.70
66576;SHT31;53428;47.686;16.584;2022-11-03T22:31:12;10.93;95.07
66576;SHT31;53428;47.686;16.584;2022-11-03T22:36:30;10.93;95.19
66576;SHT31;53428;47.686;16.584;2022-11-03T22:41:29;10.89;95.29
66576;SHT31;53428;47.686;16.584;2022-11-03T22:46:47;10.82;95.51
66576;SHT31;53428;47.686;16.584;2022-11-03T22:51:46;10.71;96.08
66576;SHT31;53428;47.686;16.584;2022-11-03T22:56:46;10.71;96.19
66576;SHT31;53428;47.686;16.584;2022-11-03T23:01:45;10.67;96.34
66576;SHT31;53428;47.686;16.584;2022-11-03T23:06:44;10.65;96.20
66576;SHT31;53428;47.686;16.584;2022-11-03T23:11:44;10.58;96.64
66576;SHT31;53428;47.686;16.584;2022-11-03T23:16:43;10.57;97.07
66576;SHT31;53428;47.686;16.584;2022-11-03T23:21:45;10.52;97.05
66576;SHT31;53428;47.686;16.584;2022-11-03T23:26:44;10.58;96.84
66576;SHT31;53428;47.686;16.584;2022-11-03T23:31:44;10.62;96.69
66576;SHT31;53428;47.686;16.584;2022-11-03T23:36:43;10.69;96.63
66576;SHT31;53428;47.686;16.584;2022-11-03T23:41:43;10.81;96.29
66576;SHT31;53428;47.686;16.584;2022-11-03T23:46:42;10.86;96.04
66576;SHT31;53428;47.686;16.584;2022-11-03T23:52:00;10.86;96.18
66576;SHT31;53428;47.686;16.584;2022-11-03T23:56:59;10.91;95.84
